Time;durP1;ratioP1;P1;durP2;ratioP2;P2;SDS_P1;SDS_P2;PMS_P1;PMS_P2;Temp;Humidity;BMP_temperature;BMP_pressure;BME280_temperature;BME280_humidity;BME280_pressure;Samples;Min_cycle;Max_cycle;Signal;HPM_P1;HPM_P2
2024/03/29 00:02:21;;;;;;;5.13;1.60;;;;;;;;;;4926505;29;20110;-82
2024/03/29 00:05:07;;;;;;;5.13;1.85;;;;;;;;;;4925825;28;20031;-82
2024/03/29 00:07:52;;;;;;;3.65;1.67;;;;;;;;;;4926133;29;20042;-82
2024/03/29 00:10:38;;;;;;;4.88;2.05;;;;;;;;;;4939370;29;20095;-83
2024/03/29 00:13:23;;;;;;;3.90;1.52;;;;;;;;;;4925835;29;20016;-83
2024/03/29 00:16:09;;;;;;;4.05;2.05;;;;;;;;;;4926002;29;20122;-83
2024/03/29 00:18:54;;;;;;;6.20;1.85;;;;;;;;;;4926307;29;20031;-83
2024/03/29 00:21:40;;;;;;;3.80;1.70;;;;;;;;;;4926271;29;20030;-83
2024/03/29 00:24:25;;;;;;;4.45;1.85;;;;;;;;;;4912945;29;20032;-83
2024/03/29 00:27:10;;;;;;;3.92;1.73;;;;;;;;;;4925919;29;20035;-84
2024/03/29 00:29:55;;;;;;;3.97;1.63;;;;;;;;;;4925924;29;20071;-84
2024/03/29 00:32:41;;;;;;;3.30;1.48;;;;;;;;;;4925791;29;20031;-82
2024/03/29 00:35:26;;;;;;;6.97;2.08;;;;;;;;;;4926146;29;20473;-84
2024/03/29 00:38:11;;;;;;;5.07;1.77;;;;;;;;;;4925862;29;20019;-84
2024/03/29 00:40:57;;;;;;;4.05;1.92;;;;;;;;;;4925894;29;20031;-84
2024/03/29 00:43:42;;;;;;;3.08;1.90;;;;;;;;;;4907213;29;20034;-83
2024/03/29 00:46:27;;;;;;;3.83;2.00;;;;;;;;;;4907010;29;20049;-84
2024/03/29 00:49:13;;;;;;;4.35;2.22;;;;;;;;;;4920145;29;20032;-86
2024/03/29 00:51:59;;;;;;;3.20;1.55;;;;;;;;;;4906907;29;20163;-83
2024/03/29 00:54:44;;;;;;;2.95;1.40;;;;;;;;;;4906915;29;20024;-84
2024/03/29 00:57:29;;;;;;;6.15;2.15;;;;;;;;;;4906782;29;20059;-83
2024/03/29 01:00:15;;;;;;;4.10;1.73;;;;;;;;;;4914300;29;20482;-84
2024/03/29 01:03:00;;;;;;;8.23;2.28;;;;;;;;;;4906956;29;20025;-83
2024/03/29 01:05:45;;;;;;;4.20;1.70;;;;;;;;;;4906099;29;20107;-84
2024/03/29 01:08:30;;;;;;;4.50;2.13;;;;;;;;;;4915617;29;20034;-83
2024/03/29 01:11:16;;;;;;;3.92;2.22;;;;;;;;;;4925573;29;20031;-83
2024/03/29 01:14:01;;;;;;;2.25;1.42;;;;;;;;;;4938614;29;20020;-83
2024/03/29 01:16:46;;;;;;;4.05;1.70;;;;;;;;;;4925253;29;20078;-83
2024/03/29 01:19:32;;;;;;;2.28;1.45;;;;;;;;;;4938702;29;20034;-83
2024/03/29 01:22:17;;;;;;;4.25;1.50;;;;;;;;;;4925255;29;20163;-83
2024/03/29 01:25:03;;;;;;;3.78;1.58;;;;;;;;;;4925462;29;20024;-83
2024/03/29 01:27:49;;;;;;;2.13;1.58;;;;;;;;;;4938897;28;20047;-83
2024/03/29 01:30:34;;;;;;;6.82;1.90;;;;;;;;;;4925385;29;20039;-83
2024/03/29 01:33:19;;;;;;;3.58;1.60;;;;;;;;;;4925497;29;20146;-81
2024/03/29 01:36:05;;;;;;;5.95;1.70;;;;;;;;;;4926403;29;20070;-84
2024/03/29 01:38:54;;;;;;;4.18;1.85;;;;;;;;;;4927498;29;20028;-84
2024/03/29 01:41:39;;;;;;;3.67;1.75;;;;;;;;;;4929541;29;20051;-84
2024/03/29 01:44:25;;;;;;;4.07;1.17;;;;;;;;;;4962071;29;20082;-82
2024/03/29 01:47:10;;;;;;;2.13;1.48;;;;;;;;;;4962569;29;20015;-84
2024/03/29 01:49:55;;;;;;;3.42;1.40;;;;;;;;;;4962409;29;20110;-84
2024/03/29 01:52:40;;;;;;;4.10;1.70;;;;;;;;;;4947758;29;20056;-83
2024/03/29 01:55:26;;;;;;;4.07;1.98;;;;;;;;;;4945799;29;20027;-83
2024/03/29 01:58:11;;;;;;;3.50;1.77;;;;;;;;;;4944178;29;20035;-83
2024/03/29 02:00:58;;;;;;;2.97;1.73;;;;;;;;;;4936978;29;20055;-83
2024/03/29 02:03:43;;;;;;;3.28;1.58;;;;;;;;;;4935431;28;20028;-83
2024/03/29 02:06:28;;;;;;;5.63;1.58;;;;;;;;;;4935693;29;20023;-84
2024/03/29 02:09:13;;;;;;;3.03;1.35;;;;;;;;;;4948947;29;20028;-83
2024/03/29 02:11:59;;;;;;;2.38;1.30;;;;;;;;;;4938556;29;20382;-83
2024/03/29 02:14:44;;;;;;;3.47;1.40;;;;;;;;;;4938248;29;20054;-83
2024/03/29 02:17:29;;;;;;;5.05;1.80;;;;;;;;;;4936066;29;20105;-83
2024/03/29 02:20:14;;;;;;;4.22;1.52;;;;;;;;;;4942459;29;20030;-83
2024/03/29 02:23:07;;;;;;;4.20;1.75;;;;;;;;;;4942034;29;20070;-84
2024/03/29 02:25:52;;;;;;;2.78;1.48;;;;;;;;;;4928334;29;20024;-83
2024/03/29 02:28:37;;;;;;;2.28;1.23;;;;;;;;;;4941795;29;20035;-83
2024/03/29 02:31:23;;;;;;;2.13;1.30;;;;;;;;;;4941342;29;20035;-84
2024/03/29 02:34:09;;;;;;;3.90;1.55;;;;;;;;;;4927761;29;20054;-83
2024/03/29 02:36:54;;;;;;;2.58;1.48;;;;;;;;;;4928299;29;20154;-83
2024/03/29 02:39:39;;;;;;;2.35;1.30;;;;;;;;;;4928223;29;20028;-84
2024/03/29 02:42:24;;;;;;;2.20;1.40;;;;;;;;;;4927487;29;20024;-83
2024/03/29 02:45:10;;;;;;;2.00;1.20;;;;;;;;;;4927662;29;20024;-83
2024/03/29 02:47:55;;;;;;;3.65;1.38;;;;;;;;;;4927418;29;20028;-83
2024/03/29 02:50:40;;;;;;;3.92;1.88;;;;;;;;;;4926758;29;20426;-84
2024/03/29 02:53:25;;;;;;;2.00;1.23;;;;;;;;;;4927927;29;20425;-83
2024/03/29 02:56:10;;;;;;;2.83;1.52;;;;;;;;;;4927791;29;20024;-84
2024/03/29 02:58:56;;;;;;;4.65;1.70;;;;;;;;;;4924178;29;20032;-85
2024/03/29 03:01:41;;;;;;;2.75;1.52;;;;;;;;;;4923581;29;20058;-84
2024/03/29 03:04:26;;;;;;;2.03;1.23;;;;;;;;;;4924874;29;20038;-84
2024/03/29 03:13:20;;;;;;;2.65;0.95;;;;;;;;;;4911002;28;20044;-83
2024/03/29 03:16:05;;;;;;;1.70;1.08;;;;;;;;;;4910637;28;20056;-83
2024/03/29 03:18:51;;;;;;;2.70;1.20;;;;;;;;;;4923942;28;20028;-83
2024/03/29 03:21:36;;;;;;;2.97;1.33;;;;;;;;;;4911283;28;20071;-84
2024/03/29 03:24:22;;;;;;;3.20;1.40;;;;;;;;;;4924128;28;20423;-83
2024/03/29 03:27:07;;;;;;;2.22;1.10;;;;;;;;;;4924200;28;20076;-83
2024/03/29 03:29:53;;;;;;;3.63;1.65;;;;;;;;;;4925257;28;20055;-84
2024/03/29 03:32:38;;;;;;;2.85;1.17;;;;;;;;;;4929354;29;20030;-83
2024/03/29 03:35:23;;;;;;;3.83;1.80;;;;;;;;;;4930079;28;20216;-83
2024/03/29 03:38:08;;;;;;;2.53;1.33;;;;;;;;;;4939041;29;20474;-83
2024/03/29 03:40:53;;;;;;;2.55;1.50;;;;;;;;;;4930715;29;20035;-83
2024/03/29 03:43:39;;;;;;;3.00;1.10;;;;;;;;;;4930112;29;20027;-83
2024/03/29 03:46:24;;;;;;;3.65;1.20;;;;;;;;;;4929513;29;20437;-83
2024/03/29 03:49:09;;;;;;;1.95;0.98;;;;;;;;;;4929495;29;20504;-83
2024/03/29 03:51:54;;;;;;;5.05;1.67;;;;;;;;;;4929799;29;20089;-84
2024/03/29 03:54:39;;;;;;;1.50;0.88;;;;;;;;;;4929328;29;20027;-83
2024/03/29 03:57:25;;;;;;;1.45;1.05;;;;;;;;;;4929229;29;20028;-84
2024/03/29 04:00:10;;;;;;;3.53;1.00;;;;;;;;;;4916392;29;20036;-83
2024/03/29 04:02:56;;;;;;;2.45;1.17;;;;;;;;;;4915299;29;20035;-84
2024/03/29 04:05:42;;;;;;;3.55;1.80;;;;;;;;;;4940848;29;20078;-83
2024/03/29 04:08:27;;;;;;;8.02;2.97;;;;;;;;;;4928606;28;20843;-84
2024/03/29 04:11:12;;;;;;;6.60;2.55;;;;;;;;;;4926624;29;20422;-84
2024/03/29 04:13:57;;;;;;;8.60;2.92;;;;;;;;;;4926381;29;20031;-85
2024/03/29 04:16:43;;;;;;;2.25;1.15;;;;;;;;;;4939316;29;20059;-85
2024/03/29 04:19:28;;;;;;;3.55;1.27;;;;;;;;;;4926845;29;20070;-85
2024/03/29 04:22:13;;;;;;;3.60;1.17;;;;;;;;;;4926788;29;20028;-84
2024/03/29 04:24:58;;;;;;;1.98;1.77;;;;;;;;;;4939765;29;20114;-83
2024/03/29 04:27:44;;;;;;;2.47;1.52;;;;;;;;;;4939678;29;20074;-84
2024/03/29 04:30:29;;;;;;;2.50;1.00;;;;;;;;;;4926027;29;20082;-84
2024/03/29 04:33:14;;;;;;;3.30;1.05;;;;;;;;;;4925952;29;20544;-83
2024/03/29 04:36:03;;;;;;;1.52;0.90;;;;;;;;;;4939181;29;20036;-83
2024/03/29 04:38:49;;;;;;;1.40;0.90;;;;;;;;;;4931902;29;20031;-84
2024/03/29 04:41:34;;;;;;;3.28;1.10;;;;;;;;;;4939271;29;20145;-83
2024/03/29 04:44:23;;;;;;;1.63;0.95;;;;;;;;;;4924094;29;20533;-83
2024/03/29 04:47:08;;;;;;;1.07;0.90;;;;;;;;;;4924849;28;20571;-83
2024/03/29 04:49:53;;;;;;;4.22;1.13;;;;;;;;;;4925936;28;20462;-83
2024/03/29 04:52:39;;;;;;;1.20;1.10;;;;;;;;;;4925646;29;20058;-83
2024/03/29 04:55:24;;;;;;;3.13;1.02;;;;;;;;;;4925516;29;20024;-83
2024/03/29 04:58:09;;;;;;;0.93;0.80;;;;;;;;;;4925077;29;20034;-84
2024/03/29 05:00:55;;;;;;;1.42;0.80;;;;;;;;;;4906971;29;20482;-84
2024/03/29 05:03:40;;;;;;;1.45;0.80;;;;;;;;;;4920330;29;20199;-83
2024/03/29 05:06:25;;;;;;;2.00;1.15;;;;;;;;;;4906583;29;20020;-83
2024/03/29 05:09:13;;;;;;;1.55;0.80;;;;;;;;;;4921584;29;20031;-84
2024/03/29 05:11:58;;;;;;;1.83;0.95;;;;;;;;;;4939328;29;20044;-84
2024/03/29 05:14:44;;;;;;;4.05;1.05;;;;;;;;;;4928565;29;20048;-86
2024/03/29 05:17:29;;;;;;;1.40;1.05;;;;;;;;;;4927358;29;20035;-85
2024/03/29 05:20:14;;;;;;;1.15;0.70;;;;;;;;;;4942700;28;20097;-83
2024/03/29 05:23:00;;;;;;;4.05;0.90;;;;;;;;;;4928806;29;20106;-84
2024/03/29 05:25:48;;;;;;;1.35;0.80;;;;;;;;;;4928528;29;20024;-85
2024/03/29 05:28:33;;;;;;;1.42;0.88;;;;;;;;;;4929244;29;20042;-85
2024/03/29 05:31:18;;;;;;;1.33;0.88;;;;;;;;;;4928765;29;20070;-84
2024/03/29 05:34:04;;;;;;;2.65;0.80;;;;;;;;;;4929027;29;20043;-85
2024/03/29 05:36:49;;;;;;;2.05;0.60;;;;;;;;;;4928901;29;20027;-84
2024/03/29 05:39:35;;;;;;;1.75;1.30;;;;;;;;;;4928935;29;20035;-85
2024/03/29 05:42:20;;;;;;;1.55;0.80;;;;;;;;;;4928539;29;20461;-84
2024/03/29 05:45:21;;;;;;;2.63;1.10;;;;;;;;;;4928626;29;20039;-84
2024/03/29 05:48:07;;;;;;;3.22;1.45;;;;;;;;;;4941563;29;20030;-84
2024/03/29 05:50:52;;;;;;;4.28;1.60;;;;;;;;;;4941849;28;20115;-84
2024/03/29 05:53:37;;;;;;;1.95;1.25;;;;;;;;;;4928632;29;20020;-84
2024/03/29 05:56:23;;;;;;;2.83;1.20;;;;;;;;;;4928560;29;20028;-85
2024/03/29 05:59:09;;;;;;;4.03;1.30;;;;;;;;;;4924135;29;20024;-84
2024/03/29 06:01:54;;;;;;;1.85;1.30;;;;;;;;;;4909848;29;20114;-85
2024/03/29 06:04:39;;;;;;;2.22;1.10;;;;;;;;;;4909277;29;20053;-84
2024/03/29 06:07:25;;;;;;;4.43;1.38;;;;;;;;;;4909592;29;20028;-85
2024/03/29 06:10:10;;;;;;;3.05;1.00;;;;;;;;;;4928304;29;20039;-85
2024/03/29 06:12:55;;;;;;;2.22;1.33;;;;;;;;;;4928223;29;20040;-84
2024/03/29 06:18:44;;;;;;;1.27;1.00;;;;;;;;;;4927916;28;20027;-84
2024/03/29 06:21:38;;;;;;;0.80;0.80;;;;;;;;;;4928210;29;20038;-85
2024/03/29 06:24:23;;;;;;;1.42;0.93;;;;;;;;;;4928295;29;20028;-84
2024/03/29 06:27:09;;;;;;;1.95;1.30;;;;;;;;;;4928158;29;20024;-84
2024/03/29 06:29:54;;;;;;;0.98;0.80;;;;;;;;;;4928306;29;20413;-84
2024/03/29 06:32:39;;;;;;;1.27;0.70;;;;;;;;;;4928131;29;20400;-84
2024/03/29 06:35:24;;;;;;;1.02;0.90;;;;;;;;;;4928076;29;20697;-84
2024/03/29 06:38:09;;;;;;;1.30;0.85;;;;;;;;;;4921374;29;20028;-84
2024/03/29 06:40:54;;;;;;;1.70;1.10;;;;;;;;;;4908923;29;20067;-83
2024/03/29 06:43:46;;;;;;;3.50;1.77;;;;;;;;;;4915657;29;20032;-85
2024/03/29 06:46:34;;;;;;;3.10;1.50;;;;;;;;;;4997557;28;20028;-84
2024/03/29 06:49:19;;;;;;;4.30;1.90;;;;;;;;;;4927945;29;20028;-85
2024/03/29 06:52:04;;;;;;;3.75;1.80;;;;;;;;;;4927457;29;20111;-85
2024/03/29 06:54:50;;;;;;;2.22;1.50;;;;;;;;;;4928085;29;20066;-85
2024/03/29 06:57:35;;;;;;;1.77;1.10;;;;;;;;;;4927684;29;20038;-84
2024/03/29 07:00:21;;;;;;;1.45;1.30;;;;;;;;;;4913607;29;20059;-85
2024/03/29 07:03:06;;;;;;;1.20;1.00;;;;;;;;;;4921595;29;20494;-84
2024/03/29 07:05:52;;;;;;;3.65;1.33;;;;;;;;;;4922136;29;20036;-84
2024/03/29 07:08:37;;;;;;;3.20;1.63;;;;;;;;;;4917905;29;20026;-84
2024/03/29 07:11:22;;;;;;;1.70;1.17;;;;;;;;;;4927511;29;20039;-85
2024/03/29 07:14:08;;;;;;;2.75;1.23;;;;;;;;;;4927351;29;20062;-83
2024/03/29 07:16:53;;;;;;;2.30;1.02;;;;;;;;;;4927145;29;20501;-84
2024/03/29 07:19:38;;;;;;;1.83;1.08;;;;;;;;;;4927533;29;20045;-83
2024/03/29 07:22:24;;;;;;;1.20;0.95;;;;;;;;;;4927408;28;20028;-83
2024/03/29 07:25:09;;;;;;;3.45;1.50;;;;;;;;;;4927435;29;20024;-84
2024/03/29 07:27:54;;;;;;;1.92;1.00;;;;;;;;;;4926808;29;20086;-84
2024/03/29 07:30:40;;;;;;;1.75;1.23;;;;;;;;;;4927519;29;20023;-83
2024/03/29 07:33:26;;;;;;;1.95;1.27;;;;;;;;;;4927278;29;20402;-83
2024/03/29 07:36:12;;;;;;;2.45;1.10;;;;;;;;;;4926327;29;20024;-84
2024/03/29 07:38:58;;;;;;;2.80;1.33;;;;;;;;;;4926650;29;20032;-83
2024/03/29 07:41:45;;;;;;;3.72;1.90;;;;;;;;;;4926913;29;20031;-83
2024/03/29 07:44:30;;;;;;;4.15;1.48;;;;;;;;;;4996900;28;20118;-82
2024/03/29 07:47:15;;;;;;;6.40;2.20;;;;;;;;;;4940552;29;20028;-83
2024/03/29 07:50:00;;;;;;;5.15;1.83;;;;;;;;;;4927213;29;20024;-84
2024/03/29 07:52:46;;;;;;;2.95;1.50;;;;;;;;;;4940097;29;20114;-83
2024/03/29 07:55:31;;;;;;;3.83;1.50;;;;;;;;;;4927166;29;20134;-84
2024/03/29 07:58:16;;;;;;;5.22;2.00;;;;;;;;;;4939779;29;20032;-83
2024/03/29 08:01:02;;;;;;;4.05;1.80;;;;;;;;;;4907692;29;20032;-83
2024/03/29 08:03:47;;;;;;;2.28;1.65;;;;;;;;;;4907925;28;20024;-84
2024/03/29 08:06:33;;;;;;;2.50;1.42;;;;;;;;;;4920915;29;20028;-82
2024/03/29 08:09:19;;;;;;;3.97;2.03;;;;;;;;;;4936347;29;20038;-83
2024/03/29 08:12:04;;;;;;;5.88;2.30;;;;;;;;;;4939753;29;20223;-84
2024/03/29 08:14:50;;;;;;;4.25;1.65;;;;;;;;;;4927538;29;20047;-84
2024/03/29 08:17:36;;;;;;;3.30;1.85;;;;;;;;;;4926525;29;20063;-83
2024/03/29 08:20:23;;;;;;;1.50;1.23;;;;;;;;;;4940158;29;20114;-84
2024/03/29 08:23:09;;;;;;;5.88;1.27;;;;;;;;;;4996657;28;20030;-84
2024/03/29 08:25:55;;;;;;;3.38;1.92;;;;;;;;;;4939965;29;20063;-83
2024/03/29 08:28:41;;;;;;;3.95;1.25;;;;;;;;;;4926368;29;20035;-84
2024/03/29 08:31:26;;;;;;;2.83;1.30;;;;;;;;;;4926723;29;20111;-84
2024/03/29 08:34:13;;;;;;;2.65;1.45;;;;;;;;;;4939676;28;20028;-83
2024/03/29 08:36:58;;;;;;;1.73;1.20;;;;;;;;;;4926355;29;20028;-83
2024/03/29 08:39:44;;;;;;;4.85;1.60;;;;;;;;;;4926846;29;20123;-83
2024/03/29 08:42:29;;;;;;;3.35;2.20;;;;;;;;;;4926268;29;20126;-83
2024/03/29 08:45:14;;;;;;;2.30;1.45;;;;;;;;;;4948433;28;20038;-83
2024/03/29 08:47:59;;;;;;;4.20;2.00;;;;;;;;;;4926829;29;20497;-83
2024/03/29 08:50:46;;;;;;;2.92;1.70;;;;;;;;;;4938936;29;20032;-84
2024/03/29 08:53:31;;;;;;;4.93;1.67;;;;;;;;;;4939204;29;20067;-83
2024/03/29 08:56:16;;;;;;;4.05;1.85;;;;;;;;;;4925858;29;20040;-83
2024/03/29 08:59:03;;;;;;;2.05;1.50;;;;;;;;;;4938907;29;20045;-83
2024/03/29 09:01:49;;;;;;;4.65;1.50;;;;;;;;;;4938800;29;20031;-84
2024/03/29 09:04:34;;;;;;;2.97;1.70;;;;;;;;;;4925591;29;20092;-83
2024/03/29 09:07:22;;;;;;;3.53;1.70;;;;;;;;;;4938512;29;20032;-86
2024/03/29 09:10:07;;;;;;;1.83;1.13;;;;;;;;;;4906777;28;20024;-85
2024/03/29 09:12:53;;;;;;;2.63;1.50;;;;;;;;;;4906463;29;20025;-85
2024/03/29 09:15:38;;;;;;;1.80;1.55;;;;;;;;;;4906380;29;20044;-85
2024/03/29 09:18:26;;;;;;;2.10;1.25;;;;;;;;;;4893334;29;20036;-83
2024/03/29 09:21:11;;;;;;;3.45;1.60;;;;;;;;;;4919805;29;20035;-83
2024/03/29 09:23:56;;;;;;;4.32;1.80;;;;;;;;;;4906613;29;20030;-84
2024/03/29 09:26:42;;;;;;;1.60;1.23;;;;;;;;;;4906404;29;20032;-82
2024/03/29 09:29:27;;;;;;;6.15;2.20;;;;;;;;;;4906406;29;20036;-83
2024/03/29 09:32:12;;;;;;;4.32;1.92;;;;;;;;;;4906352;29;20052;-84
2024/03/29 09:34:58;;;;;;;2.22;1.42;;;;;;;;;;4906242;29;20038;-83
2024/03/29 09:37:43;;;;;;;2.58;1.30;;;;;;;;;;4909112;29;20160;-84
2024/03/29 09:40:29;;;;;;;3.20;1.05;;;;;;;;;;4938573;29;20030;-84
2024/03/29 09:43:14;;;;;;;2.55;1.40;;;;;;;;;;4925474;29;20340;-83
2024/03/29 09:46:03;;;;;;;2.92;1.25;;;;;;;;;;4924748;29;20114;-84
2024/03/29 09:48:48;;;;;;;3.35;1.33;;;;;;;;;;4924769;29;20050;-84
2024/03/29 09:51:34;;;;;;;3.85;1.50;;;;;;;;;;4925275;29;20031;-84
2024/03/29 09:54:19;;;;;;;3.60;1.50;;;;;;;;;;4925545;29;20066;-84
2024/03/29 09:57:05;;;;;;;3.50;2.10;;;;;;;;;;4924807;29;20055;-84
2024/03/29 09:59:50;;;;;;;2.22;1.42;;;;;;;;;;4915988;29;20035;-84
2024/03/29 10:02:36;;;;;;;2.70;1.63;;;;;;;;;;4908995;29;20025;-83
2024/03/29 10:05:21;;;;;;;4.25;1.70;;;;;;;;;;4923323;29;20059;-83
2024/03/29 10:08:07;;;;;;;6.57;2.05;;;;;;;;;;4922409;29;20035;-83
2024/03/29 10:10:53;;;;;;;4.35;1.70;;;;;;;;;;4909113;29;20831;-83
2024/03/29 10:13:39;;;;;;;4.78;2.20;;;;;;;;;;4909087;29;20138;-82
2024/03/29 10:16:24;;;;;;;3.50;1.95;;;;;;;;;;4921810;29;20325;-83
2024/03/29 10:19:11;;;;;;;3.53;2.03;;;;;;;;;;4909230;29;20367;-84
2024/03/29 10:22:05;;;;;;;3.10;1.58;;;;;;;;;;4938539;29;20020;-81
2024/03/29 10:24:50;;;;;;;3.33;1.63;;;;;;;;;;4989340;28;20039;-84
2024/03/29 10:27:35;;;;;;;3.70;1.95;;;;;;;;;;4918594;29;20024;-82
2024/03/29 10:30:21;;;;;;;2.25;1.80;;;;;;;;;;4921122;29;20027;-83
2024/03/29 10:33:06;;;;;;;4.63;2.03;;;;;;;;;;4924724;29;20732;-83
2024/03/29 10:35:51;;;;;;;5.55;1.80;;;;;;;;;;4926136;29;20024;-83
2024/03/29 10:38:37;;;;;;;3.25;1.85;;;;;;;;;;4919343;29;20064;-84
2024/03/29 10:41:23;;;;;;;2.92;1.63;;;;;;;;;;4928893;29;20085;-84
2024/03/29 10:44:12;;;;;;;4.72;1.92;;;;;;;;;;4928247;29;20134;-84
2024/03/29 10:46:58;;;;;;;2.92;1.80;;;;;;;;;;4927767;29;20027;-84
2024/03/29 10:49:46;;;;;;;3.08;1.50;;;;;;;;;;4941287;29;20069;-83
2024/03/29 10:52:33;;;;;;;4.50;1.75;;;;;;;;;;4941468;28;20055;-84
2024/03/29 10:55:19;;;;;;;3.28;1.70;;;;;;;;;;4927577;29;20490;-84
2024/03/29 10:58:05;;;;;;;3.60;2.00;;;;;;;;;;4927874;29;20084;-85
2024/03/29 11:00:53;;;;;;;3.15;1.75;;;;;;;;;;4917393;29;20434;-84
2024/03/29 11:03:42;;;;;;;3.53;1.85;;;;;;;;;;4927177;28;20024;-84
2024/03/29 11:06:29;;;;;;;4.45;2.17;;;;;;;;;;4927627;29;20031;-84
2024/03/29 11:09:19;;;;;;;2.85;2.03;;;;;;;;;;4926715;29;20032;-84
2024/03/29 11:12:05;;;;;;;3.65;1.77;;;;;;;;;;4925625;29;20065;-84
2024/03/29 11:14:56;;;;;;;3.35;1.60;;;;;;;;;;4926501;29;20040;-84
2024/03/29 11:17:42;;;;;;;3.05;1.77;;;;;;;;;;4916535;29;20038;-84
2024/03/29 11:20:39;;;;;;;3.20;1.83;;;;;;;;;;4926484;29;20028;-84
2024/03/29 11:23:26;;;;;;;4.38;2.13;;;;;;;;;;4926622;29;20078;-84
2024/03/29 11:26:11;;;;;;;3.47;1.88;;;;;;;;;;4926306;29;20074;-84
2024/03/29 11:28:58;;;;;;;2.63;1.80;;;;;;;;;;4915481;29;20490;-83
2024/03/29 11:31:45;;;;;;;8.20;2.95;;;;;;;;;;4920932;29;20028;-83
2024/03/29 11:34:31;;;;;;;4.45;1.80;;;;;;;;;;4907961;29;20146;-83
2024/03/29 11:37:18;;;;;;;5.55;1.40;;;;;;;;;;4907120;29;20032;-85
2024/03/29 11:40:10;;;;;;;4.75;2.17;;;;;;;;;;4907617;29;20025;-85
2024/03/29 11:42:56;;;;;;;3.70;2.38;;;;;;;;;;4907650;29;20037;-84
2024/03/29 11:45:41;;;;;;;5.43;2.40;;;;;;;;;;4907353;29;20065;-83
2024/03/29 11:48:27;;;;;;;3.17;2.30;;;;;;;;;;4907297;29;20360;-84
2024/03/29 11:51:14;;;;;;;4.70;2.50;;;;;;;;;;4906899;29;20130;-84
2024/03/29 11:54:00;;;;;;;4.07;2.25;;;;;;;;;;4908646;29;20027;-84
2024/03/29 11:56:45;;;;;;;3.47;2.05;;;;;;;;;;4913403;29;20470;-83
2024/03/29 11:59:30;;;;;;;3.25;2.03;;;;;;;;;;4962652;28;20023;-84
2024/03/29 12:02:16;;;;;;;3.95;2.22;;;;;;;;;;5008670;28;20022;-83
2024/03/29 12:05:06;;;;;;;4.55;2.25;;;;;;;;;;5006480;28;20025;-83
2024/03/29 12:07:51;;;;;;;3.50;1.92;;;;;;;;;;5003762;28;20027;-84
2024/03/29 12:10:37;;;;;;;3.80;2.30;;;;;;;;;;4926097;29;20046;-83
2024/03/29 12:13:22;;;;;;;3.83;2.00;;;;;;;;;;4926202;29;20036;-84
2024/03/29 12:16:08;;;;;;;4.72;2.53;;;;;;;;;;4938523;28;20052;-84
2024/03/29 12:18:54;;;;;;;5.03;2.53;;;;;;;;;;4939171;29;20036;-84
2024/03/29 12:21:39;;;;;;;3.55;2.22;;;;;;;;;;4926556;29;20023;-84
2024/03/29 12:24:25;;;;;;;3.63;2.30;;;;;;;;;;4925847;29;20082;-84
2024/03/29 12:27:11;;;;;;;4.97;2.33;;;;;;;;;;4925297;29;20545;-84
2024/03/29 12:29:56;;;;;;;3.88;2.13;;;;;;;;;;4925445;29;20073;-84
2024/03/29 12:32:42;;;;;;;3.10;2.13;;;;;;;;;;4925760;29;20082;-84
2024/03/29 12:35:27;;;;;;;6.00;2.00;;;;;;;;;;4925116;29;20019;-84
2024/03/29 12:38:15;;;;;;;2.33;1.67;;;;;;;;;;4925592;29;20098;-84
2024/03/29 12:41:01;;;;;;;3.45;2.05;;;;;;;;;;4938867;29;20038;-83
2024/03/29 12:43:46;;;;;;;6.32;2.75;;;;;;;;;;4925596;29;20031;-85
2024/03/29 12:46:32;;;;;;;6.97;2.38;;;;;;;;;;4925360;29;20110;-84
2024/03/29 12:49:19;;;;;;;3.90;2.40;;;;;;;;;;4925686;29;20035;-84
2024/03/29 12:52:05;;;;;;;3.53;2.17;;;;;;;;;;4925202;29;20038;-84
2024/03/29 12:54:51;;;;;;;4.40;2.20;;;;;;;;;;4919809;29;20051;-85
2024/03/29 12:57:42;;;;;;;3.33;1.70;;;;;;;;;;4919135;29;20054;-84
2024/03/29 13:00:27;;;;;;;4.10;1.80;;;;;;;;;;4921259;29;20513;-84
2024/03/29 13:03:13;;;;;;;6.00;1.90;;;;;;;;;;4938120;28;20028;-84
2024/03/29 13:05:59;;;;;;;5.07;2.10;;;;;;;;;;4938506;29;20020;-84
2024/03/29 13:08:44;;;;;;;2.47;1.65;;;;;;;;;;4994691;28;20028;-84
2024/03/29 13:11:30;;;;;;;3.00;1.50;;;;;;;;;;4924760;29;20039;-84
2024/03/29 13:14:15;;;;;;;2.28;1.35;;;;;;;;;;4938405;29;20048;-84
2024/03/29 13:17:00;;;;;;;4.13;1.48;;;;;;;;;;4924896;29;20048;-85
2024/03/29 13:19:46;;;;;;;2.00;1.80;;;;;;;;;;4925020;29;20043;-84
2024/03/29 13:22:31;;;;;;;3.05;1.50;;;;;;;;;;4925406;29;20023;-84
2024/03/29 13:25:17;;;;;;;1.13;1.00;;;;;;;;;;4924826;29;20162;-84
2024/03/29 13:28:03;;;;;;;3.08;1.30;;;;;;;;;;4924493;29;20059;-84
2024/03/29 13:30:51;;;;;;;3.25;1.77;;;;;;;;;;4925004;29;20032;-84
2024/03/29 13:33:38;;;;;;;2.45;1.45;;;;;;;;;;4924638;29;20067;-85
2024/03/29 13:36:23;;;;;;;4.25;1.40;;;;;;;;;;4928339;29;20020;-84
2024/03/29 13:39:09;;;;;;;2.40;1.20;;;;;;;;;;4927856;29;20028;-84
2024/03/29 13:41:54;;;;;;;2.60;1.25;;;;;;;;;;4927827;29;20398;-84
2024/03/29 13:44:39;;;;;;;2.75;1.33;;;;;;;;;;4928406;29;20027;-84
2024/03/29 13:47:25;;;;;;;1.88;1.10;;;;;;;;;;4941129;29;20044;-84
2024/03/29 13:50:10;;;;;;;1.35;1.10;;;;;;;;;;4941400;29;20024;-84
2024/03/29 13:52:56;;;;;;;3.05;1.15;;;;;;;;;;4928328;29;20150;-84
2024/03/29 13:55:51;;;;;;;1.63;1.05;;;;;;;;;;4927719;29;20039;-84
2024/03/29 13:58:36;;;;;;;2.55;1.27;;;;;;;;;;4928448;28;20312;-84
2024/03/29 14:01:22;;;;;;;2.08;1.10;;;;;;;;;;4941273;28;20036;-83
2024/03/29 14:04:07;;;;;;;3.30;1.83;;;;;;;;;;4940921;28;20109;-84
2024/03/29 14:06:53;;;;;;;4.05;2.08;;;;;;;;;;4927407;29;20434;-83
2024/03/29 14:09:38;;;;;;;4.55;1.60;;;;;;;;;;4940950;28;20467;-82
2024/03/29 14:12:24;;;;;;;2.83;1.50;;;;;;;;;;4927710;29;20028;-83
2024/03/29 14:15:09;;;;;;;1.83;1.25;;;;;;;;;;4927182;29;20406;-84
2024/03/29 14:17:54;;;;;;;3.50;1.60;;;;;;;;;;4927602;29;20067;-84
2024/03/29 14:20:39;;;;;;;4.97;1.20;;;;;;;;;;4927648;29;20126;-84
2024/03/29 14:23:25;;;;;;;3.08;1.30;;;;;;;;;;4927319;29;20043;-84
2024/03/29 14:26:10;;;;;;;3.78;1.60;;;;;;;;;;4927372;29;20085;-84
2024/03/29 14:28:55;;;;;;;2.15;1.25;;;;;;;;;;4927798;29;20403;-85
2024/03/29 14:31:40;;;;;;;2.17;1.08;;;;;;;;;;4927254;29;20063;-85
2024/03/29 14:34:26;;;;;;;1.67;1.30;;;;;;;;;;4926931;29;20035;-84
2024/03/29 14:37:15;;;;;;;1.38;1.10;;;;;;;;;;4927242;29;20059;-83
2024/03/29 14:40:04;;;;;;;3.20;1.92;;;;;;;;;;4925219;29;20039;-83
2024/03/29 14:42:50;;;;;;;2.35;1.45;;;;;;;;;;4927330;29;20406;-83
2024/03/29 14:45:35;;;;;;;3.30;1.15;;;;;;;;;;4927058;29;20039;-84
2024/03/29 14:48:20;;;;;;;3.75;1.10;;;;;;;;;;4927291;29;20036;-84
2024/03/29 14:51:05;;;;;;;1.17;1.00;;;;;;;;;;4926776;29;20063;-83
2024/03/29 14:53:51;;;;;;;1.27;1.00;;;;;;;;;;4926591;29;20024;-83
2024/03/29 14:56:36;;;;;;;1.83;1.17;;;;;;;;;;4926908;29;20444;-83
2024/03/29 14:59:21;;;;;;;1.35;1.15;;;;;;;;;;4926606;29;20031;-83
2024/03/29 15:02:06;;;;;;;1.38;1.10;;;;;;;;;;4926951;29;20031;-83
2024/03/29 15:04:51;;;;;;;2.25;1.15;;;;;;;;;;4933294;28;20024;-83
2024/03/29 15:07:37;;;;;;;3.22;1.50;;;;;;;;;;4909913;29;20039;-83
2024/03/29 15:10:23;;;;;;;2.53;1.48;;;;;;;;;;4926995;29;20224;-83
2024/03/29 15:13:08;;;;;;;3.63;1.70;;;;;;;;;;4926787;29;20024;-84
2024/03/29 15:15:55;;;;;;;3.20;1.65;;;;;;;;;;4926524;29;20109;-84
2024/03/29 15:18:40;;;;;;;3.13;1.13;;;;;;;;;;4926775;29;20031;-83
2024/03/29 15:21:26;;;;;;;1.83;1.02;;;;;;;;;;4926561;29;20035;-84
2024/03/29 15:24:11;;;;;;;4.07;1.35;;;;;;;;;;4913042;29;20475;-84
2024/03/29 15:26:58;;;;;;;2.60;1.65;;;;;;;;;;4926826;29;20046;-83
2024/03/29 15:29:43;;;;;;;1.55;1.08;;;;;;;;;;4926835;29;20038;-85
2024/03/29 15:32:32;;;;;;;3.30;1.30;;;;;;;;;;4926486;29;20031;-84
2024/03/29 15:35:17;;;;;;;1.85;1.20;;;;;;;;;;4926554;29;20023;-83
2024/03/29 15:38:05;;;;;;;3.10;1.40;;;;;;;;;;4926503;29;20043;-85
2024/03/29 15:40:53;;;;;;;2.63;1.65;;;;;;;;;;4926096;29;20034;-85
2024/03/29 15:43:39;;;;;;;1.33;1.10;;;;;;;;;;4920744;29;20033;-84
2024/03/29 15:46:24;;;;;;;3.88;1.40;;;;;;;;;;4907465;29;20024;-82
2024/03/29 15:49:10;;;;;;;3.40;1.10;;;;;;;;;;4907130;29;20044;-83
2024/03/29 15:51:55;;;;;;;3.00;1.52;;;;;;;;;;4908335;29;20029;-84
2024/03/29 15:54:40;;;;;;;2.58;1.35;;;;;;;;;;4907307;29;20078;-85
2024/03/29 15:57:25;;;;;;;2.38;1.23;;;;;;;;;;4906372;29;20028;-85
2024/03/29 16:00:11;;;;;;;1.88;1.48;;;;;;;;;;4920423;29;20031;-84
2024/03/29 16:02:56;;;;;;;2.35;1.23;;;;;;;;;;4925719;29;20024;-84
2024/03/29 16:05:45;;;;;;;3.25;1.42;;;;;;;;;;4938748;28;20024;-85
2024/03/29 16:08:33;;;;;;;2.93;1.40;;;;;;;;;;4925788;29;20375;-84
2024/03/29 16:11:19;;;;;;;2.30;1.38;;;;;;;;;;4925993;29;20308;-84
2024/03/29 16:14:04;;;;;;;3.38;1.40;;;;;;;;;;4926100;29;20028;-84
2024/03/29 16:16:49;;;;;;;1.67;1.23;;;;;;;;;;4925792;29;20047;-84
2024/03/29 16:19:35;;;;;;;2.28;1.20;;;;;;;;;;4925342;29;20039;-84
2024/03/29 16:22:20;;;;;;;4.30;2.20;;;;;;;;;;4939316;29;20031;-84
2024/03/29 16:25:06;;;;;;;1.88;1.40;;;;;;;;;;4938651;29;20035;-84
2024/03/29 16:27:51;;;;;;;2.70;1.80;;;;;;;;;;4938834;29;20070;-83
2024/03/29 16:30:37;;;;;;;1.90;1.40;;;;;;;;;;4939418;29;20041;-85
2024/03/29 16:33:22;;;;;;;2.45;1.40;;;;;;;;;;4925662;29;20032;-86
2024/03/29 16:36:08;;;;;;;2.85;1.60;;;;;;;;;;4939094;29;20028;-85
2024/03/29 16:38:53;;;;;;;6.45;2.17;;;;;;;;;;4938579;29;20034;-83
2024/03/29 16:41:38;;;;;;;5.10;1.52;;;;;;;;;;4925397;29;20086;-83
2024/03/29 16:44:23;;;;;;;1.98;1.60;;;;;;;;;;4925887;29;20034;-85